Castaert Cam Meer informatie Castaert Cam


Bezoek onze andere website:


U vindt ons ook hier:

Het Weer Aktueel

European Weather Network

Weather Underground

WeatherlinkIP

HAMweather, WeatherForYou, PWS Weather



Het weer levert geen direct gevaar op.    Er zijn geen waarschuwingen afgegeven.

METAR rapporten vliegvelden

   
EHGR - Tilburg
Gewijzigd: 11-12-2018 19:25
Lichte (mot)regen, Bewolking  
Lichte (mot)regen, Bewolking  
   Wind: varieert 3.7 km/h
Wind: varieert 3.7 km/h
Temperatuur: 4°C
Dauwpunt: 3°C
Vochtigheid: 93%
Barometer: 1024 mb
Bewolking: Bewolking
Zicht: meer dan 10 km
Bewolking: Grotendeels bewolkt 883.9 m,
Bewolking 975.4 m
EHGR 111825Z AUTO VRB02KT 9999 -DZ BKN029 OVC032 04/03 Q1024 BLU VRB02KT 9999 FEW022 SCT030 BKN050 TEMPO FEW020CB SCT022 BKN035
EHEH - Eindhoven
Gewijzigd: 11-12-2018 19:25
Bewolking  
Bewolking  
   Wind: Kalm
Wind: Kalm
Temperatuur: 4°C
Dauwpunt: 3°C
Vochtigheid: 93%
Barometer: 1024 mb
Bewolking: Bewolking
Zicht: meer dan 10 km
Bewolking: Licht bewolkt 1036.3 m,
Bewolking 1676.4 m
EHEH 111825Z AUTO 00000KT 9999 FEW034 OVC055 04/03 Q1024 BLU VRB03KT 9999 SCT035 SCT050
EBBL - Olmen
Gewijzigd: 11-12-2018 19:25
Grotendeels bewolkt  
Grotendeels bewolkt  
   Wind: varieert 1.9 km/h
Wind: varieert 1.9 km/h
Temperatuur: 4°C
Dauwpunt: 3°C
Vochtigheid: 93%
Barometer: 1025 mb
Bewolking: Grotendeels bewolkt
Zicht: meer dan 10 km
Bewolking: Licht bewolkt 914.4 m,
Grotendeels bewolkt 1524 m
EBBL 111825Z VRB01KT 9999 FEW030 BKN050 04/03 Q1025 BLU BLU
EDSB - Lachen
Gewijzigd: 11-12-2018 19:20
Nearby Showers, Bewolking  
Nearby Showers, Bewolking  
   Wind: WZW 5.6 km/h
Wind: WZW 5.6 km/h
Temperatuur: 2°C
Voelt als: 1°C
Dauwpunt: 0°C
Vochtigheid: 87%
Barometer: 1025 mb
Bewolking: Bewolking
Zicht: meer dan 10 km
Bewolking: Grotendeels bewolkt 1463 m,
Bewolking 2164.1 m
EDSB 111820Z 25003KT 200V310 9999 VCSH BKN048 OVC071 02/00 Q1025
  

Script ontwikkeld door  Saratoga-weather.org Aangepast voor de template door  Weerstation Leuven